Time;durP1;ratioP1;P1;durP2;ratioP2;P2;SDS_P1;SDS_P2;PMS_P1;PMS_P2;Temp;Humidity;BMP_temperature;BMP_pressure;BME280_temperature;BME280_humidity;BME280_pressure;Samples;Min_cycle;Max_cycle;Signal;HPM_P1;HPM_P2
2022/05/05 00:03:25;;;;;;;9.10;5.10;;;;;;;;;;8322180;28;20052;-88
2022/05/05 00:07:27;;;;;;;11.23;4.45;;;;;;;;;;8324193;28;20047;-89
2022/05/05 00:15:54;;;;;;;11.45;5.40;;;;;;;;;;8340342;28;20049;-88
2022/05/05 00:19:56;;;;;;;13.18;5.05;;;;;;;;;;8357770;28;20049;-88
2022/05/05 00:23:59;;;;;;;9.90;4.82;;;;;;;;;;8357152;28;20048;-87
2022/05/05 00:28:02;;;;;;;10.13;4.82;;;;;;;;;;8362186;28;20044;-87
2022/05/05 00:32:07;;;;;;;8.98;5.05;;;;;;;;;;8357987;28;20231;-87
2022/05/05 00:36:11;;;;;;;9.35;5.43;;;;;;;;;;8362045;28;20045;-87
2022/05/05 00:40:16;;;;;;;11.52;5.68;;;;;;;;;;8339946;28;20996;-87
2022/05/05 00:44:22;;;;;;;8.98;4.50;;;;;;;;;;8333209;28;20140;-87
2022/05/05 00:48:28;;;;;;;9.43;4.97;;;;;;;;;;8355925;28;20045;-87
2022/05/05 00:52:34;;;;;;;9.27;4.75;;;;;;;;;;8341104;28;20089;-88
2022/05/05 00:56:40;;;;;;;9.20;4.88;;;;;;;;;;8341713;28;20203;-88
2022/05/05 01:00:42;;;;;;;9.38;4.57;;;;;;;;;;8355138;28;20098;-91
2022/05/05 01:04:48;;;;;;;8.85;4.93;;;;;;;;;;8356261;28;20459;-85
2022/05/05 01:08:53;;;;;;;14.35;5.53;;;;;;;;;;8373591;28;20060;-91
2022/05/05 01:12:55;;;;;;;10.57;4.97;;;;;;;;;;8379033;28;20100;-87
2022/05/05 01:17:02;;;;;;;11.00;5.68;;;;;;;;;;8379904;28;20101;-92
2022/05/05 01:21:09;;;;;;;10.77;5.13;;;;;;;;;;8396602;28;20036;-91
2022/05/05 01:29:33;;;;;;;12.75;5.97;;;;;;;;;;8373795;28;20037;-87
2022/05/05 01:33:36;;;;;;;10.32;5.15;;;;;;;;;;8366832;28;20041;-87
2022/05/05 01:37:39;;;;;;;7.40;4.40;;;;;;;;;;8373306;28;20048;-87
2022/05/05 01:41:44;;;;;;;10.25;4.60;;;;;;;;;;8363119;28;20109;-87
2022/05/05 01:45:47;;;;;;;8.35;4.75;;;;;;;;;;8355289;28;20342;-89
2022/05/05 01:49:52;;;;;;;9.43;4.72;;;;;;;;;;8347276;28;20049;-88
2022/05/05 01:53:55;;;;;;;12.25;5.10;;;;;;;;;;8330549;28;20057;-89
2022/05/05 01:58:02;;;;;;;11.82;4.88;;;;;;;;;;8349953;28;20094;-88
2022/05/05 02:02:05;;;;;;;10.02;4.45;;;;;;;;;;8352197;28;20068;-93
2022/05/05 02:06:08;;;;;;;9.30;4.60;;;;;;;;;;8357519;28;20068;-88
2022/05/05 02:10:16;;;;;;;10.90;4.97;;;;;;;;;;8353816;28;20135;-86
2022/05/05 02:14:23;;;;;;;8.43;3.95;;;;;;;;;;8343301;28;20048;-86
2022/05/05 02:18:26;;;;;;;11.43;4.55;;;;;;;;;;8343970;28;20048;-86
2022/05/05 02:22:28;;;;;;;8.52;4.45;;;;;;;;;;8361371;28;20045;-87
2022/05/05 02:26:31;;;;;;;7.28;4.60;;;;;;;;;;8363739;28;20476;-88
2022/05/05 02:30:35;;;;;;;7.50;4.13;;;;;;;;;;8360462;28;20127;-88
2022/05/05 02:34:37;;;;;;;8.57;4.60;;;;;;;;;;8362454;28;20041;-89
2022/05/05 02:38:43;;;;;;;10.07;4.28;;;;;;;;;;8361185;28;20483;-90
2022/05/05 02:42:46;;;;;;;7.00;4.22;;;;;;;;;;8341795;28;20281;-91
2022/05/05 02:46:52;;;;;;;7.43;4.43;;;;;;;;;;8356129;28;20456;-88
2022/05/05 02:50:55;;;;;;;7.40;4.53;;;;;;;;;;8342577;28;20393;-89
2022/05/05 02:54:58;;;;;;;10.27;4.50;;;;;;;;;;8359181;28;20667;-88
2022/05/05 02:59:03;;;;;;;6.22;3.88;;;;;;;;;;8361867;28;20300;-89
2022/05/05 03:03:07;;;;;;;10.02;4.20;;;;;;;;;;8344881;28;20052;-87
2022/05/05 03:07:10;;;;;;;8.25;4.53;;;;;;;;;;8358132;28;20052;-89
2022/05/05 03:11:13;;;;;;;8.25;4.70;;;;;;;;;;8358925;28;20049;-88
2022/05/05 03:15:15;;;;;;;10.85;4.22;;;;;;;;;;8359582;28;20132;-86
2022/05/05 03:19:20;;;;;;;7.55;4.10;;;;;;;;;;8357778;28;20668;-87
2022/05/05 03:23:23;;;;;;;10.63;4.60;;;;;;;;;;8357017;28;20067;-88
2022/05/05 03:27:25;;;;;;;16.23;7.40;;;;;;;;;;8358359;28;20476;-89
2022/05/05 03:31:28;;;;;;;12.82;6.63;;;;;;;;;;8358379;28;20053;-88
2022/05/05 03:35:34;;;;;;;11.50;6.60;;;;;;;;;;8355090;28;20052;-87
2022/05/05 03:39:39;;;;;;;8.57;5.50;;;;;;;;;;8341755;28;20061;-86
2022/05/05 03:43:42;;;;;;;11.85;5.97;;;;;;;;;;8360703;28;20045;-86
2022/05/05 03:47:45;;;;;;;14.77;7.70;;;;;;;;;;8357125;28;20053;-90
2022/05/05 03:51:51;;;;;;;13.88;6.93;;;;;;;;;;8336797;28;20071;-88
2022/05/05 03:55:55;;;;;;;11.48;6.95;;;;;;;;;;8379349;22;20496;-90
2022/05/05 03:59:57;;;;;;;14.48;7.90;;;;;;;;;;8378232;28;21718;-88
2022/05/05 04:04:00;;;;;;;11.98;5.82;;;;;;;;;;8374740;28;20044;-87
2022/05/05 04:08:09;;;;;;;9.50;5.10;;;;;;;;;;8376740;28;20071;-89
2022/05/05 04:12:12;;;;;;;7.82;4.28;;;;;;;;;;8376932;28;20049;-88
2022/05/05 04:16:15;;;;;;;10.07;4.05;;;;;;;;;;8381145;28;20036;-88
2022/05/05 04:20:20;;;;;;;9.27;4.38;;;;;;;;;;8377814;28;20404;-90
2022/05/05 04:24:24;;;;;;;8.48;4.90;;;;;;;;;;8376261;28;20070;-89
2022/05/05 04:28:28;;;;;;;6.72;3.92;;;;;;;;;;8375187;28;20040;-89
2022/05/05 04:32:33;;;;;;;8.55;3.90;;;;;;;;;;8373994;28;20127;-88
2022/05/05 04:36:36;;;;;;;10.10;4.13;;;;;;;;;;8380410;28;20949;-88
2022/05/05 04:40:41;;;;;;;6.57;3.83;;;;;;;;;;8370212;28;20379;-87
2022/05/05 04:44:44;;;;;;;7.97;4.13;;;;;;;;;;8384152;28;20151;-90
2022/05/05 04:48:48;;;;;;;6.93;3.70;;;;;;;;;;8395290;28;20052;-85
2022/05/05 04:52:51;;;;;;;7.85;3.70;;;;;;;;;;8392088;28;20057;-85
2022/05/05 04:56:55;;;;;;;6.63;4.15;;;;;;;;;;8394511;28;20059;-88
2022/05/05 05:00:58;;;;;;;7.25;4.50;;;;;;;;;;8394929;28;20044;-87
2022/05/05 05:05:01;;;;;;;9.88;3.47;;;;;;;;;;8388379;28;20397;-88
2022/05/05 05:09:04;;;;;;;8.02;3.65;;;;;;;;;;8371546;28;20098;-89
2022/05/05 05:13:09;;;;;;;6.55;3.90;;;;;;;;;;8373999;28;20044;-90
2022/05/05 05:17:12;;;;;;;5.43;3.50;;;;;;;;;;8345123;28;20049;-89
2022/05/05 05:21:18;;;;;;;8.43;4.32;;;;;;;;;;8372812;28;21737;-90
2022/05/05 05:25:25;;;;;;;10.13;5.47;;;;;;;;;;8371402;28;20134;-91
2022/05/05 05:29:33;;;;;;;9.02;3.83;;;;;;;;;;8373115;28;20056;-88
2022/05/05 05:33:38;;;;;;;15.60;14.10;;;;;;;;;;8370391;28;20040;-88
2022/05/05 05:37:45;;;;;;;10.57;8.65;;;;;;;;;;8380070;28;20040;-89
2022/05/05 05:41:53;;;;;;;28.02;19.75;;;;;;;;;;8375660;28;20079;-89
2022/05/05 05:45:58;;;;;;;23.40;20.67;;;;;;;;;;8374890;28;20044;-87
2022/05/05 05:50:01;;;;;;;14.02;8.35;;;;;;;;;;8389165;28;20090;-92
2022/05/05 06:11:30;;;;;;;12.93;8.38;;;;;;;;;;8336380;28;20554;-94
2022/05/05 06:15:34;;;;;;;9.32;5.75;;;;;;;;;;8329509;28;20052;-95
2022/05/05 06:30:20;;;;;;;10.95;4.45;;;;;;;;;;8197464;28;20098;-90
2022/05/05 06:34:26;;;;;;;8.52;4.78;;;;;;;;;;8128937;29;20463;-92
2022/05/05 06:38:29;;;;;;;25.05;6.55;;;;;;;;;;8162265;28;20058;-92
2022/05/05 06:42:36;;;;;;;12.48;6.25;;;;;;;;;;8195382;28;20087;-92
2022/05/05 06:46:44;;;;;;;6.10;2.78;;;;;;;;;;8181749;29;20055;-92
2022/05/05 06:50:49;;;;;;;7.78;3.22;;;;;;;;;;8179413;29;20063;-91
2022/05/05 06:54:54;;;;;;;6.88;3.67;;;;;;;;;;8190686;28;20058;-91
2022/05/05 06:58:59;;;;;;;12.70;4.28;;;;;;;;;;8178860;28;20522;-91
2022/05/05 07:03:04;;;;;;;6.88;2.70;;;;;;;;;;8238651;28;20080;-92
2022/05/05 07:24:37;;;;;;;16.67;9.43;;;;;;;;;;8314847;28;20053;-92
2022/05/05 07:45:26;;;;;;;10.70;5.38;;;;;;;;;;8222475;28;20081;-90
2022/05/05 07:49:35;;;;;;;10.43;3.90;;;;;;;;;;8221881;28;20415;-92
2022/05/05 07:53:38;;;;;;;12.40;7.70;;;;;;;;;;8207936;28;20403;-91
2022/05/05 07:57:48;;;;;;;10.65;3.15;;;;;;;;;;8182774;29;20059;-90
2022/05/05 08:01:53;;;;;;;19.30;13.80;;;;;;;;;;8198631;28;20061;-93
2022/05/05 08:06:01;;;;;;;10.30;3.83;;;;;;;;;;8208195;28;20056;-90
2022/05/05 08:10:05;;;;;;;9.93;3.22;;;;;;;;;;8206979;28;20050;-88
2022/05/05 08:14:11;;;;;;;4.57;2.78;;;;;;;;;;8215175;28;20140;-86
2022/05/05 08:18:14;;;;;;;39.38;20.27;;;;;;;;;;8326496;28;20045;-87
2022/05/05 08:22:22;;;;;;;5.72;2.65;;;;;;;;;;8340991;28;20360;-92
2022/05/05 08:30:45;;;;;;;7.75;2.95;;;;;;;;;;8419551;28;20127;-87
2022/05/05 08:34:50;;;;;;;5.60;2.97;;;;;;;;;;8390703;28;20488;-86
2022/05/05 08:38:56;;;;;;;7.43;3.33;;;;;;;;;;8424796;28;20055;-85
2022/05/05 08:48:31;;;;;;;6.47;3.70;;;;;;;;;;8424310;28;20070;-92
2022/05/05 08:52:40;;;;;;;41.05;31.58;;;;;;;;;;8422358;28;20048;-88
2022/05/05 08:56:45;;;;;;;6.47;3.60;;;;;;;;;;8444253;28;20551;-89
2022/05/05 09:00:55;;;;;;;10.13;4.20;;;;;;;;;;8407409;28;20397;-86
2022/05/05 09:04:59;;;;;;;21.58;10.52;;;;;;;;;;8394678;28;20071;-87
2022/05/05 09:09:07;;;;;;;16.33;6.32;;;;;;;;;;8415907;28;20044;-86
2022/05/05 09:13:16;;;;;;;22.60;13.40;;;;;;;;;;8390864;28;20102;-88
2022/05/05 09:17:22;;;;;;;9.63;3.80;;;;;;;;;;8396467;28;20056;-85
2022/05/05 09:21:41;;;;;;;7.75;4.20;;;;;;;;;;8421894;28;20044;-90
2022/05/05 09:25:49;;;;;;;14.52;5.28;;;;;;;;;;8409287;28;20427;-86
2022/05/05 09:30:06;;;;;;;18.10;7.18;;;;;;;;;;8413396;28;20056;-84
2022/05/05 09:34:19;;;;;;;30.55;8.35;;;;;;;;;;8401581;28;20056;-86
2022/05/05 09:38:22;;;;;;;8.88;4.10;;;;;;;;;;8422788;28;20051;-86
2022/05/05 09:42:36;;;;;;;9.18;4.00;;;;;;;;;;8432245;28;20392;-90
2022/05/05 09:46:43;;;;;;;8.05;3.22;;;;;;;;;;8423860;28;20048;-91
2022/05/05 09:50:50;;;;;;;6.43;3.50;;;;;;;;;;8425978;28;20044;-86
2022/05/05 09:59:30;;;;;;;6.50;3.50;;;;;;;;;;8424306;28;20560;-87
2022/05/05 10:08:07;;;;;;;14.65;5.38;;;;;;;;;;8413468;28;20081;-87
2022/05/05 10:12:11;;;;;;;8.55;3.80;;;;;;;;;;8409057;28;20047;-87
2022/05/05 10:20:33;;;;;;;12.88;8.88;;;;;;;;;;8312809;23;20267;-83
2022/05/05 10:24:45;;;;;;;6.38;4.10;;;;;;;;;;8280344;28;20077;-86
2022/05/05 10:28:49;;;;;;;5.28;3.58;;;;;;;;;;8286646;28;20061;-87
2022/05/05 10:32:52;;;;;;;9.88;5.35;;;;;;;;;;8271647;28;20081;-86
2022/05/05 10:37:06;;;;;;;8.27;3.80;;;;;;;;;;8275616;28;20056;-87
2022/05/05 10:41:39;;;;;;;13.57;5.30;;;;;;;;;;8274508;28;20414;-84
2022/05/05 10:45:44;;;;;;;6.97;4.60;;;;;;;;;;8278979;28;20052;-84
2022/05/05 10:49:50;;;;;;;6.03;3.78;;;;;;;;;;8286589;28;20552;-86
2022/05/05 10:54:22;;;;;;;6.95;4.03;;;;;;;;;;8277318;28;20038;-79
2022/05/05 10:58:59;;;;;;;16.52;7.20;;;;;;;;;;8270187;28;20085;-80
2022/05/05 11:03:18;;;;;;;9.48;4.57;;;;;;;;;;8280842;28;20053;-79
2022/05/05 11:07:31;;;;;;;8.50;5.50;;;;;;;;;;8282584;28;20441;-87
2022/05/05 11:11:41;;;;;;;15.25;5.97;;;;;;;;;;8299806;28;20061;-79
2022/05/05 11:24:34;;;;;;;13.70;5.78;;;;;;;;;;8300799;28;20481;-79
2022/05/05 11:28:39;;;;;;;10.65;5.03;;;;;;;;;;8297251;28;20046;-78
2022/05/05 11:32:44;;;;;;;10.20;5.10;;;;;;;;;;8295478;28;20043;-79
2022/05/05 11:36:47;;;;;;;63.55;30.90;;;;;;;;;;8294760;28;20088;-79
2022/05/05 11:40:59;;;;;;;9.10;4.68;;;;;;;;;;8291146;28;20100;-79
2022/05/05 11:45:06;;;;;;;13.43;6.10;;;;;;;;;;8299148;28;20401;-79
2022/05/05 11:49:10;;;;;;;8.38;5.40;;;;;;;;;;8296258;28;20581;-79
2022/05/05 11:53:16;;;;;;;16.08;8.05;;;;;;;;;;8300580;28;20401;-79
2022/05/05 11:57:35;;;;;;;8.63;4.32;;;;;;;;;;8299522;28;20049;-82
2022/05/05 12:01:39;;;;;;;8.38;5.40;;;;;;;;;;8316030;28;20099;-78
2022/05/05 12:05:43;;;;;;;10.32;4.88;;;;;;;;;;8291825;28;20037;-78
2022/05/05 12:09:46;;;;;;;6.40;4.10;;;;;;;;;;8296471;28;20547;-79
2022/05/05 12:13:51;;;;;;;7.70;4.30;;;;;;;;;;8293618;28;20134;-79
2022/05/05 12:17:58;;;;;;;10.00;4.75;;;;;;;;;;8293704;28;20141;-79
2022/05/05 12:22:03;;;;;;;7.78;4.93;;;;;;;;;;8294553;28;20050;-80
2022/05/05 12:26:06;;;;;;;9.00;4.45;;;;;;;;;;8288903;28;20049;-80
2022/05/05 12:30:10;;;;;;;6.20;4.22;;;;;;;;;;8329270;28;20046;-80
2022/05/05 12:34:25;;;;;;;14.27;5.88;;;;;;;;;;8291050;28;20064;-79
2022/05/05 12:38:35;;;;;;;11.23;5.65;;;;;;;;;;8264830;28;20054;-80
2022/05/05 12:42:40;;;;;;;6.60;4.30;;;;;;;;;;8283736;28;20054;-80
2022/05/05 12:46:51;;;;;;;10.57;5.13;;;;;;;;;;8271302;28;20053;-82
2022/05/05 12:50:56;;;;;;;13.52;8.45;;;;;;;;;;8290216;28;20464;-80
2022/05/05 12:59:38;;;;;;;5.80;4.13;;;;;;;;;;8269790;28;21080;-82
2022/05/05 13:03:41;;;;;;;6.65;4.70;;;;;;;;;;8288350;28;20565;-82
2022/05/05 13:07:45;;;;;;;10.77;5.43;;;;;;;;;;8279253;28;20118;-80
2022/05/05 13:11:51;;;;;;;5.03;3.70;;;;;;;;;;8276216;28;20405;-81
2022/05/05 13:15:54;;;;;;;9.52;3.83;;;;;;;;;;8270005;28;20041;-81
2022/05/05 13:19:57;;;;;;;6.65;4.13;;;;;;;;;;8287132;28;20054;-80
2022/05/05 13:24:02;;;;;;;8.70;4.63;;;;;;;;;;8280096;28;20049;-80
2022/05/05 13:28:07;;;;;;;9.13;4.63;;;;;;;;;;8288824;28;20046;-80
2022/05/05 13:32:10;;;;;;;9.73;5.13;;;;;;;;;;8283695;28;20054;-82
2022/05/05 13:36:13;;;;;;;7.40;4.40;;;;;;;;;;8291002;28;20092;-81
2022/05/05 13:40:18;;;;;;;8.95;4.13;;;;;;;;;;8287475;28;20070;-81
2022/05/05 13:44:22;;;;;;;11.70;6.10;;;;;;;;;;8283850;28;20556;-80
2022/05/05 13:48:26;;;;;;;8.20;3.95;;;;;;;;;;8277836;28;20049;-80
2022/05/05 13:52:29;;;;;;;5.85;3.90;;;;;;;;;;8287486;28;20054;-79
2022/05/05 13:56:34;;;;;;;8.98;4.28;;;;;;;;;;8286081;28;20051;-83
2022/05/05 14:00:38;;;;;;;7.82;4.07;;;;;;;;;;8288748;28;20400;-81
2022/05/05 14:04:41;;;;;;;5.10;3.70;;;;;;;;;;8293652;28;20053;-79
2022/05/05 14:13:08;;;;;;;7.35;3.95;;;;;;;;;;8278744;28;20535;-81
2022/05/05 14:17:11;;;;;;;6.72;3.78;;;;;;;;;;8274812;28;20429;-80
2022/05/05 14:21:15;;;;;;;5.90;4.20;;;;;;;;;;8292290;28;20054;-80
2022/05/05 14:25:19;;;;;;;6.97;4.00;;;;;;;;;;8288134;28;20489;-82
2022/05/05 14:29:26;;;;;;;7.75;4.00;;;;;;;;;;8282276;28;20127;-84
2022/05/05 14:33:30;;;;;;;6.85;4.10;;;;;;;;;;8292396;28;20468;-80
2022/05/05 14:37:33;;;;;;;10.13;4.30;;;;;;;;;;8291268;28;20050;-80
2022/05/05 14:41:36;;;;;;;8.75;4.57;;;;;;;;;;8298901;28;20056;-89
2022/05/05 14:45:40;;;;;;;6.35;4.15;;;;;;;;;;8301141;28;20054;-90
2022/05/05 14:49:48;;;;;;;9.13;5.00;;;;;;;;;;8300240;28;20409;-84
2022/05/05 14:53:50;;;;;;;6.00;3.53;;;;;;;;;;8294891;28;20050;-82
2022/05/05 14:57:53;;;;;;;6.40;4.00;;;;;;;;;;8294369;28;20054;-84
2022/05/05 15:01:59;;;;;;;8.07;4.13;;;;;;;;;;8295454;28;20050;-85
2022/05/05 15:06:02;;;;;;;9.23;5.00;;;;;;;;;;8288566;28;20041;-86
2022/05/05 15:10:05;;;;;;;9.18;4.50;;;;;;;;;;8291449;28;20137;-85
2022/05/05 15:14:08;;;;;;;7.30;3.90;;;;;;;;;;8290760;28;20050;-81
2022/05/05 15:18:13;;;;;;;8.68;4.03;;;;;;;;;;8306653;28;20444;-82
2022/05/05 15:22:16;;;;;;;12.90;7.38;;;;;;;;;;8326386;28;20050;-81
2022/05/05 15:26:18;;;;;;;7.15;4.22;;;;;;;;;;8323078;28;20412;-82
2022/05/05 15:30:22;;;;;;;10.43;5.45;;;;;;;;;;8308743;28;20054;-80
2022/05/05 15:34:27;;;;;;;8.00;4.82;;;;;;;;;;8291208;28;20117;-79
2022/05/05 15:38:30;;;;;;;12.27;4.97;;;;;;;;;;8284355;28;20053;-80
2022/05/05 15:42:36;;;;;;;7.40;4.75;;;;;;;;;;8278384;28;20139;-80
2022/05/05 15:46:46;;;;;;;9.75;4.07;;;;;;;;;;8285768;28;20045;-81
2022/05/05 15:50:52;;;;;;;9.63;5.93;;;;;;;;;;8271019;28;20589;-85
2022/05/05 15:54:55;;;;;;;6.43;4.38;;;;;;;;;;8288944;28;20046;-81
2022/05/05 15:58:58;;;;;;;11.70;5.53;;;;;;;;;;8294099;28;20042;-81
2022/05/05 16:03:05;;;;;;;9.15;5.28;;;;;;;;;;8294198;28;20049;-81
2022/05/05 16:07:14;;;;;;;12.20;6.90;;;;;;;;;;8293987;28;20052;-81
2022/05/05 16:11:19;;;;;;;76.10;48.88;;;;;;;;;;8294521;28;20057;-80
2022/05/05 16:15:24;;;;;;;62.20;33.80;;;;;;;;;;8294166;28;20551;-80
2022/05/05 16:19:27;;;;;;;20.85;10.38;;;;;;;;;;8276015;28;20477;-80
2022/05/05 16:23:33;;;;;;;18.58;10.38;;;;;;;;;;8275340;28;20489;-81
2022/05/05 16:31:58;;;;;;;;;;;;;;;;;;8261590;28;20054;-81
2022/05/05 16:36:02;;;;;;;8.60;4.38;;;;;;;;;;8284908;28;19928;-81
2022/05/05 16:40:08;;;;;;;6.10;4.60;;;;;;;;;;8291999;28;20054;-80
2022/05/05 16:44:13;;;;;;;7.82;4.40;;;;;;;;;;8282828;28;20058;-80
2022/05/05 16:48:16;;;;;;;6.82;4.80;;;;;;;;;;8284275;28;20046;-81
2022/05/05 16:52:19;;;;;;;7.45;5.25;;;;;;;;;;8286086;28;20100;-80
2022/05/05 16:56:24;;;;;;;7.68;4.70;;;;;;;;;;8272702;28;20050;-80
2022/05/05 17:00:28;;;;;;;6.78;4.97;;;;;;;;;;8263009;28;20057;-80
2022/05/05 17:04:31;;;;;;;6.35;4.35;;;;;;;;;;8280523;28;20082;-80
2022/05/05 17:08:34;;;;;;;9.55;4.72;;;;;;;;;;8281941;28;20698;-81
2022/05/05 17:12:39;;;;;;;11.10;4.93;;;;;;;;;;8282079;28;20398;-80
2022/05/05 17:16:42;;;;;;;7.43;4.93;;;;;;;;;;8290309;28;20067;-81
2022/05/05 17:20:45;;;;;;;8.68;4.95;;;;;;;;;;8285983;28;20049;-84
2022/05/05 17:24:48;;;;;;;8.45;5.10;;;;;;;;;;8264245;28;20049;-87
2022/05/05 17:28:53;;;;;;;10.02;5.47;;;;;;;;;;8287633;28;20042;-83
2022/05/05 17:32:57;;;;;;;11.30;5.32;;;;;;;;;;8277444;28;20092;-85
2022/05/05 17:37:01;;;;;;;7.32;5.10;;;;;;;;;;8273124;28;20115;-81
2022/05/05 17:41:05;;;;;;;13.57;5.53;;;;;;;;;;8267744;28;20053;-83
2022/05/05 17:53:54;;;;;;;9.25;6.43;;;;;;;;;;8261454;28;20539;-84
2022/05/05 17:58:02;;;;;;;8.55;5.82;;;;;;;;;;8287836;28;20061;-85
2022/05/05 18:02:11;;;;;;;9.23;7.38;;;;;;;;;;8288437;28;20480;-83
2022/05/05 18:06:16;;;;;;;12.65;5.63;;;;;;;;;;8293133;28;20048;-84
2022/05/05 18:10:19;;;;;;;14.68;7.43;;;;;;;;;;8294121;28;20077;-83
2022/05/05 18:14:23;;;;;;;9.73;6.40;;;;;;;;;;8285259;28;20112;-83
2022/05/05 18:18:27;;;;;;;9.75;7.07;;;;;;;;;;8301326;28;20136;-82
2022/05/05 18:22:32;;;;;;;15.48;8.00;;;;;;;;;;8300509;28;20072;-82
2022/05/05 18:26:35;;;;;;;11.93;7.07;;;;;;;;;;8290403;28;20046;-83
2022/05/05 18:30:39;;;;;;;13.13;7.30;;;;;;;;;;8290635;28;20053;-83
2022/05/05 18:34:45;;;;;;;10.82;7.03;;;;;;;;;;8270914;28;20053;-82
2022/05/05 18:38:55;;;;;;;13.57;8.68;;;;;;;;;;8287207;28;20050;-83
2022/05/05 18:43:13;;;;;;;10.10;6.50;;;;;;;;;;8301642;28;20037;-81
2022/05/05 18:47:26;;;;;;;13.63;7.13;;;;;;;;;;8300165;28;20046;-81
2022/05/05 18:51:32;;;;;;;10.43;7.32;;;;;;;;;;8308368;28;20049;-83
2022/05/05 18:55:38;;;;;;;14.52;8.00;;;;;;;;;;8301688;28;20041;-84
2022/05/05 18:59:40;;;;;;;10.45;7.50;;;;;;;;;;8305397;28;20374;-83
2022/05/05 19:03:44;;;;;;;10.85;7.60;;;;;;;;;;8302668;28;20509;-85
2022/05/05 19:07:48;;;;;;;9.13;7.03;;;;;;;;;;8303635;28;20489;-85
2022/05/05 19:11:51;;;;;;;10.40;6.90;;;;;;;;;;8308054;28;20163;-84
2022/05/05 19:15:55;;;;;;;8.63;6.97;;;;;;;;;;8311672;28;20091;-85
2022/05/05 19:20:00;;;;;;;11.25;7.20;;;;;;;;;;8291719;28;20701;-84
2022/05/05 19:24:09;;;;;;;9.10;7.05;;;;;;;;;;8289266;28;20073;-83
2022/05/05 19:28:12;;;;;;;10.30;7.32;;;;;;;;;;8288913;28;20478;-87
2022/05/05 19:32:16;;;;;;;12.40;7.70;;;;;;;;;;8288179;28;20053;-82
2022/05/05 19:36:19;;;;;;;9.38;6.25;;;;;;;;;;8294199;28;20068;-86
2022/05/05 19:40:23;;;;;;;9.23;6.43;;;;;;;;;;8279781;28;20046;-86
2022/05/05 19:44:27;;;;;;;9.98;6.43;;;;;;;;;;8278859;28;20068;-87
2022/05/05 19:48:30;;;;;;;8.57;6.32;;;;;;;;;;8288800;28;20446;-87
2022/05/05 19:52:38;;;;;;;7.80;5.70;;;;;;;;;;8292684;28;20045;-85
2022/05/05 20:01:14;;;;;;;7.57;5.80;;;;;;;;;;8191970;28;20050;-83
2022/05/05 20:09:38;;;;;;;8.70;6.60;;;;;;;;;;8285134;28;20477;-85
2022/05/05 20:13:44;;;;;;;9.43;6.60;;;;;;;;;;8285602;28;20470;-84
2022/05/05 20:17:47;;;;;;;10.07;6.45;;;;;;;;;;8289108;28;20057;-84
2022/05/05 20:21:50;;;;;;;9.27;6.25;;;;;;;;;;8290306;28;20492;-85
2022/05/05 20:25:57;;;;;;;8.95;6.53;;;;;;;;;;8282558;28;20053;-83
2022/05/05 20:30:13;;;;;;;8.75;5.93;;;;;;;;;;8278664;28;20118;-83
2022/05/05 20:34:16;;;;;;;9.43;6.43;;;;;;;;;;8295408;28;20422;-84
2022/05/05 20:38:19;;;;;;;9.52;6.43;;;;;;;;;;8298014;28;20099;-83
2022/05/05 20:42:26;;;;;;;8.07;6.40;;;;;;;;;;8272186;28;20043;-84
2022/05/05 20:46:31;;;;;;;9.13;6.80;;;;;;;;;;8269332;28;20064;-85
2022/05/05 20:50:35;;;;;;;52.85;19.90;;;;;;;;;;8298291;28;20041;-86
2022/05/05 20:54:40;;;;;;;19.17;9.32;;;;;;;;;;8297878;28;20050;-84
2022/05/05 20:58:46;;;;;;;9.88;6.82;;;;;;;;;;8297656;28;20406;-84
2022/05/05 21:02:53;;;;;;;10.40;7.10;;;;;;;;;;8297462;28;20498;-86
2022/05/05 21:07:01;;;;;;;9.40;6.32;;;;;;;;;;8297774;28;20103;-87
2022/05/05 21:11:13;;;;;;;8.93;7.03;;;;;;;;;;8303921;28;20174;-84
2022/05/05 21:15:19;;;;;;;9.75;6.82;;;;;;;;;;8304375;28;20434;-84
2022/05/05 21:19:25;;;;;;;9.63;7.00;;;;;;;;;;8303855;28;20168;-84
2022/05/05 21:28:07;;;;;;;16.70;9.70;;;;;;;;;;8229929;28;20180;-85
2022/05/05 21:32:12;;;;;;;13.52;9.30;;;;;;;;;;8261044;28;20145;-87
2022/05/05 21:36:17;;;;;;;11.65;8.00;;;;;;;;;;8299433;28;20057;-83
2022/05/05 21:40:20;;;;;;;9.30;6.90;;;;;;;;;;8294657;28;20378;-83
2022/05/05 21:44:22;;;;;;;13.65;7.78;;;;;;;;;;8301565;28;20042;-84
2022/05/05 21:48:25;;;;;;;11.48;7.25;;;;;;;;;;8300613;28;20046;-83
2022/05/05 21:52:29;;;;;;;12.07;9.00;;;;;;;;;;8302521;28;20065;-83
2022/05/05 21:56:33;;;;;;;12.40;8.85;;;;;;;;;;8303094;28;20045;-83
2022/05/05 22:00:47;;;;;;;10.07;7.65;;;;;;;;;;8303072;28;20046;-83
2022/05/05 22:04:50;;;;;;;11.25;7.75;;;;;;;;;;8301903;28;20046;-84
2022/05/05 22:08:54;;;;;;;10.90;8.23;;;;;;;;;;8302691;28;20046;-83
2022/05/05 22:12:57;;;;;;;11.75;7.85;;;;;;;;;;8299005;28;20504;-84
2022/05/05 22:16:59;;;;;;;11.02;7.47;;;;;;;;;;8299866;28;20041;-84
2022/05/05 22:21:02;;;;;;;12.20;8.60;;;;;;;;;;8300445;28;20037;-84
2022/05/05 22:25:07;;;;;;;13.98;9.27;;;;;;;;;;8299047;28;20145;-84
2022/05/05 22:29:10;;;;;;;11.18;8.65;;;;;;;;;;8301143;28;20053;-83
2022/05/05 22:33:13;;;;;;;10.93;7.70;;;;;;;;;;8294454;28;20041;-83
2022/05/05 22:37:16;;;;;;;11.95;8.52;;;;;;;;;;8299812;28;20046;-84
2022/05/05 22:45:40;;;;;;;11.07;8.77;;;;;;;;;;8299493;28;20050;-84
2022/05/05 22:54:04;;;;;;;12.30;8.40;;;;;;;;;;8295227;28;20053;-83
2022/05/05 22:58:08;;;;;;;12.10;8.80;;;;;;;;;;8293654;28;20405;-85
2022/05/05 23:02:11;;;;;;;12.90;9.45;;;;;;;;;;8296589;28;20046;-83
2022/05/05 23:06:13;;;;;;;11.18;8.63;;;;;;;;;;8298281;28;20070;-82
2022/05/05 23:10:17;;;;;;;13.23;9.27;;;;;;;;;;8296373;28;20048;-82
2022/05/05 23:14:21;;;;;;;14.98;9.45;;;;;;;;;;8299054;28;20041;-83
2022/05/05 23:18:23;;;;;;;12.90;9.65;;;;;;;;;;8299009;28;20058;-82
2022/05/05 23:22:26;;;;;;;13.82;10.20;;;;;;;;;;8298772;28;20053;-83
2022/05/05 23:26:28;;;;;;;15.85;10.20;;;;;;;;;;8298080;28;20042;-83
2022/05/05 23:30:32;;;;;;;21.40;14.05;;;;;;;;;;8297139;28;20076;-85
2022/05/05 23:38:55;;;;;;;16.50;10.75;;;;;;;;;;8333227;28;20115;-83
2022/05/05 23:42:58;;;;;;;13.95;10.20;;;;;;;;;;8324474;28;20045;-83
2022/05/05 23:47:02;;;;;;;14.82;9.95;;;;;;;;;;8312554;28;20053;-83
2022/05/05 23:55:24;;;;;;;15.55;10.55;;;;;;;;;;8298627;28;20076;-83
2022/05/05 23:59:27;;;;;;;13.77;10.55;;;;;;;;;;8298884;28;20052;-83
